Time;durP1;ratioP1;P1;durP2;ratioP2;P2;SDS_P1;SDS_P2;PMS_P1;PMS_P2;Temp;Humidity;BMP_temperature;BMP_pressure;BME280_temperature;BME280_humidity;BME280_pressure;Samples;Min_cycle;Max_cycle;Signal;HPM_P1;HPM_P2
2022/05/07 00:02:06;;;;;;;4.80;3.97;;;16.10;61.60;;;;;;5038129;28;20032;-70
2022/05/07 00:04:35;;;;;;;4.97;4.07;;;16.10;61.80;;;;;;5038478;28;20471;-71
2022/05/07 00:07:01;;;;;;;5.45;4.43;;;16.10;62.00;;;;;;5046070;28;20475;-70
2022/05/07 00:09:27;;;;;;;4.65;3.95;;;16.10;62.10;;;;;;5038251;28;20075;-69
2022/05/07 00:11:53;;;;;;;4.78;4.13;;;16.10;62.00;;;;;;5042645;28;20029;-71
2022/05/07 00:14:18;;;;;;;5.85;4.38;;;16.20;61.90;;;;;;5036620;28;20025;-70
2022/05/07 00:19:28;;;;;;;4.32;3.90;;;16.10;62.00;;;;;;5039973;28;20094;-71
2022/05/07 00:21:53;;;;;;;4.95;4.07;;;16.10;62.00;;;;;;5039231;28;20021;-69
2022/05/07 00:24:19;;;;;;;4.97;3.92;;;16.20;62.20;;;;;;5036354;28;20034;-71
2022/05/07 00:26:45;;;;;;;4.93;3.95;;;16.10;62.10;;;;;;5038592;28;20025;-69
2022/05/07 00:29:11;;;;;;;6.88;4.65;;;16.20;62.00;;;;;;5038376;28;20036;-69
2022/05/07 00:31:36;;;;;;;6.00;4.68;;;16.20;62.10;;;;;;5040527;28;20021;-69
2022/05/07 00:34:02;;;;;;;7.68;5.18;;;16.20;62.10;;;;;;5041639;28;20056;-69
2022/05/07 00:36:27;;;;;;;5.88;5.05;;;16.20;62.00;;;;;;5040008;28;20399;-70
2022/05/07 00:38:53;;;;;;;5.95;4.50;;;16.20;62.00;;;;;;5036372;28;20072;-69
2022/05/07 00:41:18;;;;;;;6.55;5.10;;;16.20;62.10;;;;;;5039835;28;20554;-69
2022/05/07 00:43:44;;;;;;;7.03;5.78;;;16.20;62.30;;;;;;5039124;28;20021;-70
2022/05/07 00:46:11;;;;;;;6.57;5.88;;;16.20;62.40;;;;;;5037161;28;20025;-70
2022/05/07 00:48:37;;;;;;;8.38;5.82;;;16.20;62.40;;;;;;5041507;28;20051;-70
2022/05/07 00:53:49;;;;;;;7.05;6.35;;;16.30;62.30;;;;;;5041726;28;20074;-69
2022/05/07 00:56:16;;;;;;;7.00;5.93;;;16.30;62.20;;;;;;5037287;28;20147;-70
2022/05/07 00:58:41;;;;;;;6.85;5.82;;;16.30;62.20;;;;;;5041686;28;20049;-71
2022/05/07 01:01:07;;;;;;;8.30;6.00;;;16.40;62.30;;;;;;5040177;28;20052;-70
2022/05/07 01:03:32;;;;;;;7.65;6.25;;;16.40;62.30;;;;;;5044717;28;20518;-71
2022/05/07 01:05:59;;;;;;;6.18;5.57;;;16.30;62.30;;;;;;5043308;28;20030;-69
2022/05/07 01:08:25;;;;;;;7.47;6.68;;;16.30;62.50;;;;;;5042727;28;20152;-68
2022/05/07 01:10:52;;;;;;;8.35;6.65;;;16.30;62.70;;;;;;5040359;28;20028;-68
2022/05/07 01:13:18;;;;;;;9.93;7.38;;;16.30;62.70;;;;;;5048602;28;20037;-68
2022/05/07 01:15:45;;;;;;;9.38;7.22;;;16.30;62.70;;;;;;5037285;28;20026;-69
2022/05/07 01:18:11;;;;;;;7.90;6.85;;;16.30;62.70;;;;;;5047606;28;20044;-69
2022/05/07 01:20:38;;;;;;;8.60;7.70;;;16.30;63.30;;;;;;5042862;28;20017;-75
2022/05/07 01:23:04;;;;;;;9.25;8.00;;;16.30;62.90;;;;;;5045596;28;20021;-70
2022/05/07 01:25:29;;;;;;;9.45;7.68;;;16.20;63.00;;;;;;5048921;28;20108;-69
2022/05/07 01:27:55;;;;;;;9.75;8.18;;;16.20;63.10;;;;;;5052340;28;20028;-70
2022/05/07 01:30:21;;;;;;;9.63;7.80;;;16.20;63.10;;;;;;5052138;28;20557;-69
2022/05/07 01:32:46;;;;;;;7.43;6.60;;;16.20;63.30;;;;;;5039660;28;20053;-70
2022/05/07 01:35:12;;;;;;;7.85;6.78;;;16.20;63.30;;;;;;5049599;28;20052;-69
2022/05/07 01:37:38;;;;;;;7.97;6.95;;;16.20;63.30;;;;;;5058705;28;20452;-71
2022/05/07 01:40:04;;;;;;;8.48;7.38;;;16.20;63.20;;;;;;5045656;28;20032;-72
2022/05/07 01:42:29;;;;;;;7.88;7.00;;;16.20;63.20;;;;;;5037588;28;20663;-71
2022/05/07 01:44:55;;;;;;;6.97;6.03;;;16.20;63.10;;;;;;5058123;28;20046;-69
2022/05/07 01:50:05;;;;;;;8.27;6.50;;;16.10;64.00;;;;;;5061762;28;20032;-72
2022/05/07 01:52:31;;;;;;;8.68;7.53;;;16.10;63.60;;;;;;5041906;28;20036;-72
2022/05/07 01:54:56;;;;;;;9.77;8.32;;;16.00;63.80;;;;;;5047169;28;20024;-72
2022/05/07 01:57:22;;;;;;;8.27;7.43;;;15.90;63.80;;;;;;5052954;28;20493;-71
2022/05/07 01:59:47;;;;;;;8.98;7.88;;;16.00;63.90;;;;;;5050212;28;20159;-71
2022/05/07 02:02:13;;;;;;;10.25;9.23;;;16.00;63.80;;;;;;5056200;28;20021;-71
2022/05/07 02:04:39;;;;;;;10.45;8.88;;;15.90;63.90;;;;;;5057314;28;20121;-71
2022/05/07 02:07:05;;;;;;;9.57;8.57;;;16.00;63.90;;;;;;5054587;28;20024;-70
2022/05/07 02:09:30;;;;;;;10.40;9.30;;;16.00;64.10;;;;;;5049132;28;20059;-70
2022/05/07 02:11:56;;;;;;;9.73;8.65;;;15.90;64.10;;;;;;5046381;28;20074;-70
2022/05/07 02:14:22;;;;;;;8.90;8.00;;;15.90;64.20;;;;;;5053857;28;20044;-71
2022/05/07 02:16:47;;;;;;;10.20;8.88;;;15.80;64.40;;;;;;5046618;28;20041;-71
2022/05/07 02:19:13;;;;;;;10.88;9.15;;;15.70;64.60;;;;;;5053642;28;20028;-72
2022/05/07 02:21:38;;;;;;;11.23;10.02;;;15.80;64.90;;;;;;5047456;28;20043;-72
2022/05/07 02:24:04;;;;;;;11.07;9.88;;;15.80;64.80;;;;;;5058301;28;20558;-72
2022/05/07 02:26:30;;;;;;;11.02;9.82;;;15.80;64.80;;;;;;5036301;28;20067;-72
2022/05/07 02:28:55;;;;;;;11.43;9.13;;;15.80;64.70;;;;;;5052465;28;20031;-71
2022/05/07 02:31:20;;;;;;;11.45;10.25;;;15.80;64.80;;;;;;5053984;28;20033;-72
2022/05/07 02:33:46;;;;;;;11.00;9.18;;;15.70;65.10;;;;;;5054500;28;20055;-72
2022/05/07 02:36:11;;;;;;;10.43;9.27;;;15.70;65.30;;;;;;5045222;28;20033;-72
2022/05/07 02:38:38;;;;;;;10.63;9.27;;;15.70;65.40;;;;;;5044494;28;20028;-72
2022/05/07 02:43:48;;;;;;;12.10;10.90;;;15.70;65.50;;;;;;5044818;28;20532;-73
2022/05/07 02:46:14;;;;;;;11.95;10.30;;;15.70;65.40;;;;;;5044574;28;20025;-73
2022/05/07 02:48:44;;;;;;;10.95;9.85;;;15.80;65.40;;;;;;5042363;28;20025;-73
2022/05/07 02:51:10;;;;;;;11.38;10.18;;;15.70;65.40;;;;;;5045520;28;20052;-73
2022/05/07 02:53:35;;;;;;;10.48;9.38;;;15.70;65.30;;;;;;5042208;28;20045;-74
2022/05/07 02:56:01;;;;;;;10.70;9.60;;;15.70;65.30;;;;;;5051023;28;20547;-73
2022/05/07 02:58:26;;;;;;;10.70;9.55;;;15.70;65.40;;;;;;5053201;28;20020;-71
2022/05/07 03:00:53;;;;;;;10.27;9.27;;;15.70;65.50;;;;;;5051858;28;20035;-71
2022/05/07 03:03:19;;;;;;;10.93;9.65;;;15.70;65.60;;;;;;5052572;28;20021;-71
2022/05/07 03:05:44;;;;;;;12.15;10.95;;;15.60;65.80;;;;;;5064065;28;20035;-72
2022/05/07 03:08:10;;;;;;;11.00;9.77;;;15.60;66.00;;;;;;5051167;28;20059;-71
2022/05/07 03:10:36;;;;;;;13.32;11.52;;;15.60;65.90;;;;;;5053361;28;20028;-71
2022/05/07 03:13:02;;;;;;;13.52;11.35;;;15.60;65.90;;;;;;5044147;28;20156;-71
2022/05/07 03:15:28;;;;;;;12.77;11.48;;;15.70;66.00;;;;;;5048003;28;20025;-70
2022/05/07 03:17:53;;;;;;;14.50;12.40;;;15.70;65.90;;;;;;5046075;28;20103;-69
2022/05/07 03:20:19;;;;;;;14.48;12.15;;;15.70;65.90;;;;;;5058956;28;20024;-70
2022/05/07 03:22:45;;;;;;;13.43;11.05;;;15.70;66.00;;;;;;5054624;28;20032;-72
2022/05/07 03:25:11;;;;;;;12.43;10.82;;;15.60;65.90;;;;;;5042950;28;20027;-70
2022/05/07 03:27:37;;;;;;;13.27;11.52;;;15.50;66.10;;;;;;5044930;28;20037;-70
2022/05/07 03:30:04;;;;;;;13.18;11.77;;;15.50;66.30;;;;;;5059485;28;20402;-70
2022/05/07 03:32:30;;;;;;;13.50;12.05;;;15.50;66.30;;;;;;5044132;28;20446;-70
2022/05/07 03:34:57;;;;;;;13.15;11.57;;;15.50;66.60;;;;;;5048422;28;20140;-70
2022/05/07 03:37:23;;;;;;;13.13;11.68;;;15.40;66.70;;;;;;5048224;28;20112;-70
2022/05/07 03:39:50;;;;;;;14.15;11.95;;;15.50;66.70;;;;;;5053796;28;20234;-71
2022/05/07 03:42:16;;;;;;;15.90;13.02;;;15.50;66.70;;;;;;5052485;28;20058;-70
2022/05/07 03:44:41;;;;;;;13.57;12.13;;;15.40;66.70;;;;;;5035720;28;20116;-72
2022/05/07 03:47:07;;;;;;;14.77;13.02;;;15.50;66.70;;;;;;5064269;28;20029;-70
2022/05/07 03:49:33;;;;;;;15.60;13.07;;;15.50;66.60;;;;;;5048052;28;20041;-70
2022/05/07 03:54:43;;;;;;;12.48;10.70;;;15.40;66.60;;;;;;5041624;28;20414;-70
2022/05/07 03:57:09;;;;;;;12.75;11.40;;;15.40;66.70;;;;;;5047732;28;20084;-68
2022/05/07 03:59:35;;;;;;;13.07;11.68;;;15.40;66.80;;;;;;5043884;28;20029;-69
2022/05/07 04:02:00;;;;;;;14.18;12.68;;;15.40;66.80;;;;;;5055207;28;20043;-69
2022/05/07 04:04:26;;;;;;;15.55;13.25;;;15.40;66.70;;;;;;5058245;28;20025;-70
2022/05/07 04:06:51;;;;;;;15.00;12.43;;;15.40;67.40;;;;;;5060086;28;20565;-69
2022/05/07 04:09:17;;;;;;;13.13;11.73;;;15.40;66.60;;;;;;5053991;28;20036;-71
2022/05/07 04:11:42;;;;;;;15.20;12.82;;;15.50;66.60;;;;;;5044791;28;20140;-70
2022/05/07 04:14:08;;;;;;;12.93;11.45;;;15.50;66.50;;;;;;5042883;28;20033;-70
2022/05/07 04:16:33;;;;;;;13.25;11.60;;;15.50;66.50;;;;;;5044677;28;20025;-70
2022/05/07 04:18:59;;;;;;;15.15;12.70;;;15.50;66.60;;;;;;5050867;28;20031;-70
2022/05/07 04:21:24;;;;;;;14.70;12.75;;;15.50;66.70;;;;;;5051793;28;20029;-70
2022/05/07 04:23:50;;;;;;;13.40;11.95;;;15.50;66.60;;;;;;5045921;28;20035;-70
2022/05/07 04:26:15;;;;;;;13.32;11.43;;;15.60;66.60;;;;;;5044760;28;20029;-73
2022/05/07 04:28:41;;;;;;;12.30;10.80;;;15.60;66.60;;;;;;5042479;28;20029;-69
2022/05/07 04:31:06;;;;;;;12.23;10.70;;;15.60;66.50;;;;;;5058024;28;20047;-70
2022/05/07 04:33:32;;;;;;;11.90;10.63;;;15.60;66.50;;;;;;5045101;28;20160;-71
2022/05/07 04:35:57;;;;;;;13.93;10.82;;;15.70;66.40;;;;;;5042208;28;20095;-70
2022/05/07 04:38:22;;;;;;;11.80;9.88;;;15.70;66.40;;;;;;5046557;28;20025;-70
2022/05/07 04:40:48;;;;;;;13.65;10.27;;;15.70;66.40;;;;;;5062104;28;20437;-71
2022/05/07 04:43:17;;;;;;;12.15;10.07;;;15.80;66.40;;;;;;5055911;28;20025;-69
2022/05/07 04:45:43;;;;;;;12.65;10.30;;;15.80;66.30;;;;;;5066313;28;20033;-72
2022/05/07 04:48:08;;;;;;;13.30;10.98;;;15.80;66.30;;;;;;5050734;28;20029;-69
2022/05/07 04:50:34;;;;;;;12.43;9.80;;;15.80;66.40;;;;;;5054529;28;20122;-70
2022/05/07 04:52:59;;;;;;;14.48;12.45;;;15.80;66.40;;;;;;5050198;28;20394;-70
2022/05/07 04:55:25;;;;;;;14.32;11.57;;;15.90;66.60;;;;;;5051532;28;20033;-71
2022/05/07 04:57:51;;;;;;;13.45;10.85;;;15.90;66.50;;;;;;5050547;28;20097;-73
2022/05/07 05:00:16;;;;;;;11.65;10.02;;;16.00;66.40;;;;;;5035184;28;20032;-71
2022/05/07 05:02:43;;;;;;;13.57;11.52;;;16.00;66.30;;;;;;5037098;28;20033;-71
2022/05/07 05:05:08;;;;;;;12.65;10.88;;;16.00;66.30;;;;;;5047829;28;20009;-70
2022/05/07 05:07:35;;;;;;;13.82;11.90;;;16.00;66.30;;;;;;5063564;28;20111;-70
2022/05/07 05:10:00;;;;;;;14.15;12.65;;;16.00;66.30;;;;;;5046714;28;20021;-71
2022/05/07 05:12:26;;;;;;;14.95;11.70;;;16.00;66.50;;;;;;5052046;28;20037;-73
2022/05/07 05:15:08;;;;;;;13.57;12.07;;;16.10;66.40;;;;;;5049802;28;20024;-74
2022/05/07 05:17:34;;;;;;;12.90;11.15;;;16.10;66.30;;;;;;5062001;28;20021;-76
2022/05/07 05:20:02;;;;;;;13.95;11.27;;;16.20;66.20;;;;;;5054077;28;20024;-74
2022/05/07 05:22:27;;;;;;;13.75;11.65;;;16.20;66.20;;;;;;5057441;28;20020;-73
2022/05/07 05:24:53;;;;;;;14.18;12.00;;;16.30;66.20;;;;;;5047899;28;20080;-73
2022/05/07 05:27:19;;;;;;;13.25;11.00;;;16.30;66.00;;;;;;5062075;28;20390;-73
2022/05/07 05:29:45;;;;;;;15.80;12.85;;;16.40;66.00;;;;;;5047386;28;20471;-74
2022/05/07 05:32:17;;;;;;;13.20;11.60;;;16.40;65.90;;;;;;5043924;28;20100;-73
2022/05/07 05:34:46;;;;;;;12.50;11.15;;;16.40;65.90;;;;;;5046407;28;20066;-73
2022/05/07 05:37:13;;;;;;;13.07;11.25;;;16.50;65.90;;;;;;5052982;28;20040;-72
2022/05/07 05:39:39;;;;;;;13.07;10.00;;;16.50;65.90;;;;;;5044643;28;20023;-71
2022/05/07 05:42:05;;;;;;;13.35;10.70;;;16.60;65.70;;;;;;5047924;28;20025;-72
2022/05/07 05:44:30;;;;;;;12.65;10.85;;;16.60;65.30;;;;;;5046120;28;20587;-72
2022/05/07 05:46:55;;;;;;;11.35;9.65;;;16.60;65.10;;;;;;5054741;28;20020;-72
2022/05/07 05:49:21;;;;;;;10.23;9.07;;;16.60;64.80;;;;;;5063317;28;20036;-69
2022/05/07 05:51:46;;;;;;;11.75;9.75;;;16.70;64.70;;;;;;5057083;28;20060;-73
2022/05/07 05:54:12;;;;;;;11.93;9.20;;;16.70;64.60;;;;;;5048895;28;20129;-72
2022/05/07 05:56:38;;;;;;;10.07;8.50;;;16.70;64.30;;;;;;5056128;28;20104;-70
2022/05/07 05:59:03;;;;;;;12.60;8.60;;;16.80;64.20;;;;;;5059243;28;20027;-73
2022/05/07 06:01:29;;;;;;;10.68;8.88;;;16.80;64.00;;;;;;5052285;28;20617;-72
2022/05/07 06:03:54;;;;;;;11.02;7.70;;;16.90;63.70;;;;;;5054531;28;20021;-71
2022/05/07 06:06:20;;;;;;;10.40;7.50;;;16.90;63.50;;;;;;5046289;28;20028;-70
2022/05/07 06:08:46;;;;;;;10.25;7.65;;;17.00;63.30;;;;;;5053366;28;20049;-72
2022/05/07 06:11:12;;;;;;;8.25;6.65;;;17.00;63.20;;;;;;5044476;28;20025;-70
2022/05/07 06:13:38;;;;;;;8.95;6.88;;;17.00;63.00;;;;;;5049896;28;20017;-71
2022/05/07 06:16:03;;;;;;;8.13;6.28;;;17.10;62.90;;;;;;5043715;28;20415;-73
2022/05/07 06:18:29;;;;;;;8.55;6.38;;;17.20;63.50;;;;;;5043129;28;20030;-73
2022/05/07 06:20:55;;;;;;;8.43;6.30;;;17.20;62.60;;;;;;5044650;28;20021;-73
2022/05/07 06:23:20;;;;;;;10.07;6.90;;;17.30;62.30;;;;;;5040116;28;20025;-69
2022/05/07 06:28:30;;;;;;;9.52;7.18;;;17.60;61.60;;;;;;5041154;28;20075;-73
2022/05/07 06:30:57;;;;;;;7.50;5.90;;;17.90;61.00;;;;;;5025379;28;20044;-73
2022/05/07 06:33:23;;;;;;;8.95;5.75;;;18.20;60.10;;;;;;5039234;28;20061;-71
2022/05/07 06:35:49;;;;;;;9.75;7.05;;;18.70;59.30;;;;;;5035914;28;20419;-73
2022/05/07 06:38:16;;;;;;;8.57;6.50;;;19.00;58.30;;;;;;5043510;28;20659;-72
2022/05/07 06:40:42;;;;;;;6.72;5.32;;;19.30;57.40;;;;;;5038820;28;20029;-70
2022/05/07 06:43:08;;;;;;;9.55;6.57;;;19.50;56.80;;;;;;5041357;28;20056;-71
2022/05/07 06:45:33;;;;;;;9.55;5.90;;;19.90;56.00;;;;;;5039096;28;20553;-71
2022/05/07 06:48:00;;;;;;;9.27;5.93;;;20.20;55.20;;;;;;5039518;28;20029;-70
2022/05/07 06:50:26;;;;;;;8.35;5.50;;;20.40;54.50;;;;;;5041596;28;20021;-71
2022/05/07 06:52:52;;;;;;;7.10;5.53;;;20.40;54.40;;;;;;5041027;28;20029;-71
2022/05/07 06:55:19;;;;;;;6.50;4.30;;;20.60;54.20;;;;;;5035212;28;20116;-71
2022/05/07 06:57:45;;;;;;;8.23;6.00;;;21.00;53.80;;;;;;5038624;28;20014;-71
2022/05/07 07:00:13;;;;;;;9.10;5.70;;;21.20;53.10;;;;;;5035470;28;20030;-71
2022/05/07 07:02:40;;;;;;;8.77;6.50;;;21.50;52.50;;;;;;5039788;28;20029;-74
2022/05/07 07:05:10;;;;;;;8.77;5.40;;;21.90;51.70;;;;;;5045986;28;20041;-70
2022/05/07 07:07:36;;;;;;;7.78;5.57;;;22.40;50.80;;;;;;5054701;28;20031;-72
2022/05/07 07:10:02;;;;;;;6.68;5.38;;;22.60;50.10;;;;;;5048256;28;20048;-70
2022/05/07 07:12:29;;;;;;;10.32;6.13;;;22.30;50.50;;;;;;5046322;28;20427;-72
2022/05/07 07:14:54;;;;;;;8.15;5.40;;;22.80;50.00;;;;;;5047948;28;20028;-70
2022/05/07 07:17:20;;;;;;;11.63;7.07;;;23.30;49.30;;;;;;5033875;28;20029;-70
2022/05/07 07:19:46;;;;;;;8.18;6.32;;;23.40;48.60;;;;;;5038965;28;20086;-72
2022/05/07 07:22:12;;;;;;;8.93;6.20;;;23.30;48.70;;;;;;5036009;28;20640;-71
2022/05/07 07:24:38;;;;;;;10.25;7.18;;;23.40;48.90;;;;;;5037883;28;20447;-70
2022/05/07 07:27:05;;;;;;;9.05;7.03;;;23.40;48.70;;;;;;5036739;28;20118;-71
2022/05/07 07:29:30;;;;;;;10.85;7.82;;;23.20;49.10;;;;;;5036030;28;20112;-70
2022/05/07 07:31:56;;;;;;;8.98;6.75;;;22.90;49.50;;;;;;5038705;28;20169;-72
2022/05/07 07:34:22;;;;;;;10.75;6.95;;;22.70;50.00;;;;;;5041192;28;20038;-71
2022/05/07 07:36:50;;;;;;;9.45;6.95;;;22.40;50.30;;;;;;5039615;28;20071;-72
2022/05/07 07:39:16;;;;;;;8.05;6.07;;;22.00;51.00;;;;;;5040752;28;20057;-71
2022/05/07 07:41:43;;;;;;;8.35;6.18;;;21.70;51.50;;;;;;5042183;28;20018;-69
2022/05/07 07:44:09;;;;;;;11.05;7.80;;;21.60;52.10;;;;;;5047420;28;20021;-76
2022/05/07 07:49:38;;;;;;;10.30;6.82;;;21.20;52.50;;;;;;5039487;28;20017;-72
2022/05/07 07:52:05;;;;;;;8.30;6.07;;;21.10;53.00;;;;;;5035070;28;20040;-68
2022/05/07 07:54:30;;;;;;;10.25;6.72;;;21.20;53.00;;;;;;5037914;28;20046;-70
2022/05/07 07:56:58;;;;;;;10.20;6.55;;;21.20;53.00;;;;;;5042523;28;20043;-71
2022/05/07 07:59:23;;;;;;;10.40;6.72;;;21.30;53.00;;;;;;5039884;28;20102;-71
2022/05/07 08:01:49;;;;;;;9.38;6.70;;;21.50;52.70;;;;;;5039121;28;20029;-71
2022/05/07 08:04:14;;;;;;;10.75;7.07;;;21.60;52.40;;;;;;5037903;28;20075;-71
2022/05/07 08:06:40;;;;;;;10.48;6.95;;;21.80;52.20;;;;;;5044202;28;20028;-72
2022/05/07 08:11:56;;;;;;;9.02;7.13;;;22.20;51.50;;;;;;5039339;28;20041;-71
2022/05/07 08:14:22;;;;;;;8.55;6.05;;;22.30;51.00;;;;;;5048048;28;20075;-72
2022/05/07 08:16:47;;;;;;;8.13;6.07;;;22.40;50.60;;;;;;5048663;28;20021;-70
2022/05/07 08:19:13;;;;;;;7.97;6.00;;;22.50;50.30;;;;;;5045729;28;20612;-71
2022/05/07 08:21:38;;;;;;;8.63;6.30;;;22.60;50.10;;;;;;5048096;28;20025;-70
2022/05/07 08:24:04;;;;;;;9.77;6.32;;;22.70;49.30;;;;;;5043953;28;20125;-70
2022/05/07 08:26:30;;;;;;;9.52;5.57;;;22.80;49.00;;;;;;5046324;28;20030;-70
2022/05/07 08:28:56;;;;;;;10.13;6.45;;;22.90;48.80;;;;;;5055995;28;20032;-70
2022/05/07 08:31:22;;;;;;;11.25;6.40;;;23.00;48.00;;;;;;5050659;28;20675;-71
2022/05/07 08:33:48;;;;;;;8.38;5.78;;;23.00;47.60;;;;;;5055129;28;20029;-72
2022/05/07 08:36:14;;;;;;;8.02;5.80;;;22.90;47.50;;;;;;5044178;28;20032;-71
2022/05/07 08:38:40;;;;;;;7.35;5.20;;;22.90;47.50;;;;;;5047196;28;20027;-71
2022/05/07 08:41:06;;;;;;;7.47;4.72;;;23.00;47.50;;;;;;5048145;28;20439;-71
2022/05/07 08:43:36;;;;;;;6.85;5.00;;;23.20;47.40;;;;;;5045941;28;20021;-70
2022/05/07 08:46:11;;;;;;;11.18;6.03;;;23.20;47.10;;;;;;5046987;28;20036;-72
2022/05/07 08:48:42;;;;;;;10.93;6.70;;;23.30;46.90;;;;;;5037386;28;20025;-71
2022/05/07 08:51:08;;;;;;;9.07;5.57;;;23.10;46.70;;;;;;5049889;28;20029;-71
2022/05/07 08:53:34;;;;;;;9.27;5.63;;;23.00;47.10;;;;;;5052718;28;20016;-71
2022/05/07 08:56:01;;;;;;;10.20;6.78;;;23.10;47.10;;;;;;5047249;28;20112;-72
2022/05/07 08:58:26;;;;;;;8.02;5.57;;;23.20;47.00;;;;;;5043907;28;20025;-72
2022/05/07 09:00:52;;;;;;;9.45;4.90;;;23.20;47.20;;;;;;5051605;28;20032;-72
2022/05/07 09:03:17;;;;;;;7.18;5.13;;;23.30;47.20;;;;;;5040866;28;20033;-72
2022/05/07 09:05:43;;;;;;;7.13;5.07;;;23.30;46.90;;;;;;5056781;28;20108;-71
2022/05/07 09:08:12;;;;;;;11.05;4.90;;;23.30;46.80;;;;;;5057662;28;20071;-72
2022/05/07 09:10:39;;;;;;;10.00;5.65;;;23.30;46.70;;;;;;5044616;28;20051;-70
2022/05/07 09:13:13;;;;;;;8.05;4.50;;;23.40;46.80;;;;;;5040028;28;20098;-71
2022/05/07 09:15:56;;;;;;;7.82;5.00;;;23.40;46.90;;;;;;5046714;28;20032;-72
2022/05/07 09:18:23;;;;;;;10.98;5.97;;;23.50;46.80;;;;;;5040913;28;20021;-72
2022/05/07 09:21:15;;;;;;;8.23;5.43;;;23.60;46.70;;;;;;5044453;28;20021;-73
2022/05/07 09:23:45;;;;;;;;;;;23.80;47.30;;;;;;5041324;28;20504;-71
2022/05/07 09:26:23;;;;;;;8.32;5.35;;;23.80;46.50;;;;;;5044922;28;20333;-70
2022/05/07 09:28:49;;;;;;;8.98;5.85;;;23.80;46.70;;;;;;5044750;28;20542;-72
2022/05/07 09:31:22;;;;;;;7.70;4.90;;;23.70;46.50;;;;;;5043473;28;20151;-72
2022/05/07 09:33:47;;;;;;;7.32;4.13;;;23.70;46.80;;;;;;5047223;28;20469;-72
2022/05/07 09:36:13;;;;;;;10.35;5.80;;;23.90;46.90;;;;;;5055281;28;20108;-71
2022/05/07 09:38:39;;;;;;;8.30;5.50;;;23.90;46.30;;;;;;5046872;28;20487;-72
2022/05/07 09:41:05;;;;;;;8.75;6.03;;;23.90;46.20;;;;;;5054702;28;20382;-71
2022/05/07 09:43:32;;;;;;;7.00;5.03;;;23.80;46.20;;;;;;5051474;28;20071;-72
2022/05/07 09:45:58;;;;;;;6.88;4.22;;;23.80;46.30;;;;;;5041982;28;20029;-72
2022/05/07 09:48:24;;;;;;;8.25;6.00;;;23.90;46.50;;;;;;5050365;28;20091;-72
2022/05/07 09:50:50;;;;;;;9.57;5.60;;;23.90;46.20;;;;;;5056883;28;20108;-72
2022/05/07 09:58:50;;;;;;;9.80;6.32;;;23.70;45.90;;;;;;5056300;28;20150;-71
2022/05/07 10:01:20;;;;;;;8.45;5.63;;;23.70;46.30;;;;;;5056587;28;20063;-71
2022/05/07 10:03:45;;;;;;;8.30;5.90;;;23.80;46.40;;;;;;5055620;28;20028;-68
2022/05/07 10:06:23;;;;;;;7.45;5.07;;;23.80;46.60;;;;;;5049171;28;20029;-71
2022/05/07 10:09:09;;;;;;;8.27;5.80;;;23.90;45.90;;;;;;5047920;28;20542;-72
2022/05/07 10:11:35;;;;;;;7.43;4.32;;;24.00;46.10;;;;;;5062506;28;20057;-71
2022/05/07 10:14:00;;;;;;;10.30;6.88;;;24.20;46.10;;;;;;5061242;28;20810;-71
2022/05/07 10:16:30;;;;;;;11.02;6.60;;;24.20;45.60;;;;;;5054619;28;20024;-71
2022/05/07 10:18:56;;;;;;;9.50;6.38;;;24.30;45.60;;;;;;5052097;28;20036;-70
2022/05/07 10:21:22;;;;;;;9.70;5.63;;;24.40;45.40;;;;;;5048874;28;20053;-70
2022/05/07 10:23:55;;;;;;;8.15;5.47;;;24.40;45.30;;;;;;5041829;28;20045;-70
2022/05/07 10:26:23;;;;;;;7.95;5.68;;;24.30;45.10;;;;;;5051412;28;20159;-69
2022/05/07 10:28:49;;;;;;;7.95;5.78;;;24.20;45.10;;;;;;5047220;28;20032;-71
2022/05/07 10:31:16;;;;;;;7.65;5.50;;;24.30;45.00;;;;;;5043781;28;20021;-71
2022/05/07 10:33:42;;;;;;;8.38;5.50;;;24.50;44.90;;;;;;5043489;28;20036;-71
2022/05/07 10:36:09;;;;;;;9.73;6.22;;;24.60;44.70;;;;;;5041991;28;20033;-70
2022/05/07 10:38:37;;;;;;;10.25;6.40;;;24.60;44.10;;;;;;5042368;28;20022;-70
2022/05/07 10:41:05;;;;;;;9.00;5.80;;;24.80;44.00;;;;;;5042257;28;21343;-70
2022/05/07 10:43:42;;;;;;;8.85;5.50;;;24.90;43.80;;;;;;5041861;28;20112;-70
2022/05/07 10:46:20;;;;;;;8.07;5.53;;;25.00;43.70;;;;;;5048439;28;20030;-71
2022/05/07 10:48:57;;;;;;;8.77;5.45;;;24.90;43.80;;;;;;5053064;28;20174;-71
2022/05/07 10:51:39;;;;;;;6.63;5.13;;;24.90;44.00;;;;;;5049280;28;20299;-72
2022/05/07 10:54:24;;;;;;;5.97;4.38;;;24.90;43.80;;;;;;5041349;28;20034;-71
2022/05/07 10:56:57;;;;;;;8.48;5.38;;;25.00;43.60;;;;;;5048756;28;20490;-72
2022/05/07 10:59:25;;;;;;;6.53;5.03;;;25.00;43.70;;;;;;5047990;28;20020;-71
2022/05/07 11:01:51;;;;;;;8.15;6.60;;;25.10;43.90;;;;;;5049622;28;20028;-71
2022/05/07 11:04:19;;;;;;;6.78;4.70;;;24.90;44.00;;;;;;5051094;28;20037;-71
2022/05/07 11:06:47;;;;;;;9.75;6.30;;;24.70;44.60;;;;;;5060727;28;20482;-72
2022/05/07 11:09:24;;;;;;;9.00;5.47;;;24.50;44.70;;;;;;5054226;28;20638;-71
2022/05/07 11:11:52;;;;;;;6.70;4.75;;;24.40;44.90;;;;;;5050246;28;20427;-71
2022/05/07 11:14:35;;;;;;;8.15;5.45;;;24.40;44.90;;;;;;5059129;28;20025;-71
2022/05/07 11:17:03;;;;;;;7.80;5.72;;;24.20;45.60;;;;;;5044981;28;20033;-72
2022/05/07 11:19:33;;;;;;;7.75;5.45;;;24.10;45.10;;;;;;5044797;28;20021;-72
2022/05/07 11:22:10;;;;;;;8.10;5.10;;;24.10;45.40;;;;;;5050578;28;20115;-73
2022/05/07 11:24:36;;;;;;;6.13;4.57;;;24.10;45.60;;;;;;5059764;28;20433;-72
2022/05/07 11:27:06;;;;;;;7.60;4.50;;;24.10;45.60;;;;;;5043454;28;20029;-71
2022/05/07 11:29:32;;;;;;;8.77;6.07;;;24.30;45.60;;;;;;5044459;28;20024;-72
2022/05/07 11:32:07;;;;;;;7.78;4.93;;;24.30;45.40;;;;;;5044176;28;20139;-71
2022/05/07 11:34:37;;;;;;;9.70;5.50;;;24.30;45.60;;;;;;5057551;28;20093;-71
2022/05/07 11:37:17;;;;;;;7.28;5.72;;;24.30;45.60;;;;;;5035565;28;20029;-72
2022/05/07 11:39:57;;;;;;;7.13;5.13;;;24.20;45.80;;;;;;5044506;28;20022;-72
2022/05/07 11:42:33;;;;;;;7.18;4.45;;;24.10;45.90;;;;;;5045888;28;20034;-71
2022/05/07 11:48:00;;;;;;;7.43;4.57;;;24.20;45.80;;;;;;5051247;28;20106;-72
2022/05/07 11:50:52;;;;;;;7.07;4.32;;;24.20;45.90;;;;;;5054463;28;20032;-72
2022/05/07 11:53:20;;;;;;;5.80;4.30;;;24.00;46.00;;;;;;5050721;28;20064;-72
2022/05/07 11:55:48;;;;;;;8.15;5.35;;;23.90;46.20;;;;;;5059750;28;20110;-72
2022/05/07 11:58:17;;;;;;;5.65;4.28;;;23.80;46.50;;;;;;5062125;28;20032;-71
2022/05/07 12:00:44;;;;;;;6.13;3.67;;;23.60;46.90;;;;;;5051538;28;20026;-71
2022/05/07 12:03:11;;;;;;;7.80;3.10;;;23.40;48.20;;;;;;5053999;28;20021;-71
2022/05/07 12:05:43;;;;;;;5.90;2.35;;;23.20;48.90;;;;;;5054203;28;20029;-71
2022/05/07 12:08:15;;;;;;;5.30;2.58;;;22.90;50.10;;;;;;5046340;28;20185;-71
2022/05/07 12:10:42;;;;;;;2.88;2.05;;;22.70;51.40;;;;;;5041216;28;20118;-70
2022/05/07 12:13:09;;;;;;;3.67;2.85;;;22.50;52.10;;;;;;5048883;28;20378;-70
2022/05/07 12:18:23;;;;;;;4.68;3.00;;;22.10;54.30;;;;;;5045670;28;20040;-70
2022/05/07 12:20:49;;;;;;;5.13;3.10;;;21.90;55.10;;;;;;5043935;28;20070;-73
2022/05/07 12:31:27;;;;;;;6.30;3.80;;;21.70;57.20;;;;;;5051974;28;20115;-71
2022/05/07 12:33:53;;;;;;;4.85;3.30;;;21.60;57.50;;;;;;5051328;28;20033;-71
2022/05/07 12:36:18;;;;;;;4.15;2.92;;;21.40;57.60;;;;;;5043035;28;20044;-71
2022/05/07 12:38:44;;;;;;;4.95;3.40;;;21.40;58.00;;;;;;5042402;28;20028;-71
2022/05/07 12:41:09;;;;;;;5.43;4.20;;;21.30;58.30;;;;;;5047007;28;20021;-70
2022/05/07 12:43:35;;;;;;;8.00;4.55;;;21.30;58.80;;;;;;5045570;28;20096;-71
2022/05/07 12:46:01;;;;;;;4.45;3.60;;;21.40;59.40;;;;;;5051145;28;20035;-70
2022/05/07 12:48:27;;;;;;;6.93;4.32;;;21.30;59.40;;;;;;5044143;28;20507;-70
2022/05/07 12:50:52;;;;;;;7.15;4.60;;;21.40;59.60;;;;;;5046647;28;20060;-71
2022/05/07 12:53:18;;;;;;;6.97;4.88;;;21.50;59.70;;;;;;5044680;28;20112;-70
2022/05/07 12:55:44;;;;;;;6.85;4.60;;;21.80;60.10;;;;;;5042644;28;20096;-70
2022/05/07 12:58:11;;;;;;;6.45;4.35;;;22.00;59.70;;;;;;5052554;28;20603;-70
2022/05/07 13:00:38;;;;;;;6.80;4.80;;;22.20;59.10;;;;;;5045852;28;20021;-70
2022/05/07 13:03:04;;;;;;;7.75;4.97;;;22.50;58.40;;;;;;5045487;28;20039;-70
2022/05/07 13:05:33;;;;;;;8.43;5.07;;;22.80;57.80;;;;;;5049954;28;20036;-70
2022/05/07 13:08:00;;;;;;;8.73;5.80;;;22.90;56.90;;;;;;5046231;28;20033;-70
2022/05/07 13:10:26;;;;;;;6.40;4.45;;;22.90;55.90;;;;;;5040961;28;20033;-72
2022/05/07 13:12:52;;;;;;;7.30;4.80;;;22.90;55.70;;;;;;5045262;28;20417;-70
2022/05/07 13:15:18;;;;;;;9.38;5.63;;;22.90;54.80;;;;;;5045852;28;20081;-71
2022/05/07 13:17:43;;;;;;;10.85;6.70;;;23.10;54.40;;;;;;5045310;28;20388;-69
2022/05/07 13:20:09;;;;;;;9.25;6.97;;;22.90;53.70;;;;;;5042950;28;20100;-70
2022/05/07 13:22:34;;;;;;;14.13;9.10;;;22.80;54.70;;;;;;5040959;28;20085;-69